Time;durP1;ratioP1;P1;durP2;ratioP2;P2;SDS_P1;SDS_P2;PMS_P1;PMS_P2;Temp;Humidity;BMP_temperature;BMP_pressure;BME280_temperature;BME280_humidity;BME280_pressure;Samples;Min_cycle;Max_cycle;Signal;HPM_P1;HPM_P2
2022/03/20 00:00:27;;;;;;;26.60;18.40;;;;;;;-0.51;52.26;104117.59;2099080;28;20749;-67
2022/03/20 00:01:27;;;;;;;25.40;17.87;;;;;;;-0.60;51.75;104102.09;2098686;28;20184;-67
2022/03/20 00:02:30;;;;;;;28.00;18.43;;;;;;;-0.55;52.30;104116.50;2098523;28;20185;-67
2022/03/20 00:03:32;;;;;;;27.20;18.77;;;;;;;-1.50;52.12;103962.44;2098739;28;20181;-67
2022/03/20 00:04:32;;;;;;;26.75;18.63;;;;;;;-0.57;52.64;104114.34;2098396;28;20216;-67
2022/03/20 00:05:40;;;;;;;30.93;18.70;;;;;;;-1.16;52.34;104035.09;2098778;28;20703;-67
2022/03/20 00:06:41;;;;;;;27.15;18.70;;;;;;;-0.61;52.74;104117.59;2098800;28;20239;-67
2022/03/20 00:07:41;;;;;;;26.60;18.73;;;;;;;-0.82;52.73;104082.47;2098638;28;20192;-67
2022/03/20 00:08:42;;;;;;;29.80;19.53;;;;;;;-1.20;53.01;104020.41;2098777;28;20185;-67
2022/03/20 00:09:44;;;;;;;29.63;20.07;;;;;;;-0.98;53.48;104066.41;2098758;28;20648;-67
2022/03/20 00:10:50;;;;;;;31.33;19.05;;;;;;;-0.64;53.36;104114.63;2098767;28;20188;-67
2022/03/20 00:11:51;;;;;;;25.38;17.63;;;;;;;-0.65;53.56;104102.09;2098829;28;20236;-67
2022/03/20 00:12:52;;;;;;;26.63;18.23;;;;;;;-0.63;53.41;104110.81;2098483;28;20263;-67
2022/03/20 00:13:53;;;;;;;26.67;19.27;;;;;;;-0.62;53.15;104107.81;2098295;28;20180;-67
2022/03/20 00:14:53;;;;;;;28.30;19.50;;;;;;;-0.63;52.79;104096.38;2098799;28;20218;-67
2022/03/20 00:15:57;;;;;;;30.53;20.63;;;;;;;-0.63;52.37;104108.06;2098762;28;20207;-67
2022/03/20 00:16:57;;;;;;;30.38;19.70;;;;;;;-0.63;52.89;104096.38;2098126;28;20180;-67
2022/03/20 00:17:58;;;;;;;31.90;19.77;;;;;;;-0.65;52.46;104104.81;2097995;28;20233;-67
2022/03/20 00:18:58;;;;;;;29.37;17.93;;;;;;;-0.68;52.83;104103.44;2098093;28;20673;-67
2022/03/20 00:19:59;;;;;;;25.03;17.80;;;;;;;-0.76;52.79;104084.91;2097929;28;20183;-67
2022/03/20 00:21:00;;;;;;;23.67;17.43;;;;;;;-1.70;52.73;103933.28;2097741;28;20233;-67
2022/03/20 00:22:01;;;;;;;25.35;17.27;;;;;;;-0.77;52.69;104084.38;2098079;28;20182;-67
2022/03/20 00:23:04;;;;;;;25.88;17.60;;;;;;;-0.65;52.39;104102.88;2098551;28;20658;-67
2022/03/20 00:24:05;;;;;;;22.02;16.13;;;;;;;-0.67;52.67;104096.91;2098104;28;20668;-67
2022/03/20 00:25:06;;;;;;;24.17;16.73;;;;;;;-0.66;52.43;104101.25;2098759;28;20644;-67
2022/03/20 00:26:07;;;;;;;24.47;16.80;;;;;;;-0.68;52.33;104095.28;2098663;28;20177;-67
2022/03/20 00:27:12;;;;;;;32.40;16.10;;;;;;;-0.69;52.06;104092.81;2098745;28;20230;-67
2022/03/20 00:28:15;;;;;;;25.67;16.45;;;;;;;-0.71;52.12;104104.00;2098554;28;20167;-67
2022/03/20 00:29:15;;;;;;;22.08;15.68;;;;;;;-0.86;51.91;104087.66;2098667;28;20262;-67
2022/03/20 00:30:16;;;;;;;23.27;16.47;;;;;;;-0.86;52.01;104095.00;2098586;28;20233;-67
2022/03/20 00:31:17;;;;;;;27.37;16.60;;;;;;;-0.98;52.13;104082.75;2098720;28;20308;-67
2022/03/20 00:32:19;;;;;;;22.23;15.97;;;;;;;-0.94;52.19;104092.81;2098455;28;20664;-67
2022/03/20 00:33:20;;;;;;;22.77;16.05;;;;;;;-0.96;52.41;104095.81;2098604;28;20618;-67
2022/03/20 00:34:21;;;;;;;25.85;17.55;;;;;;;-0.98;52.45;104097.16;2098446;28;20184;-67
2022/03/20 00:35:21;;;;;;;25.73;17.17;;;;;;;-1.01;52.67;104095.81;2098563;28;20727;-67
2022/03/20 00:36:22;;;;;;;24.27;16.37;;;;;;;-1.04;52.48;104087.38;2098559;28;20232;-67
2022/03/20 00:37:23;;;;;;;24.53;16.00;;;;;;;-1.15;52.82;104080.28;2098861;28;20184;-67
2022/03/20 00:38:23;;;;;;;20.53;15.37;;;;;;;-1.33;52.75;104059.03;2098540;28;20234;-67
2022/03/20 00:39:24;;;;;;;22.43;16.40;;;;;;;-1.69;53.00;104015.69;2098748;28;20211;-67
2022/03/20 00:40:25;;;;;;;20.43;15.97;;;;;;;-1.17;52.93;104097.97;2098642;28;20180;-67
2022/03/20 00:41:25;;;;;;;22.50;16.40;;;;;;;-1.73;53.10;104013.50;2098661;28;20188;-67
2022/03/20 00:42:26;;;;;;;25.07;16.93;;;;;;;-1.22;53.06;104096.84;2098149;28;20214;-67
2022/03/20 00:43:27;;;;;;;24.57;16.93;;;;;;;-1.23;53.17;104099.03;2098015;28;20192;-67
2022/03/20 00:44:27;;;;;;;25.17;16.80;;;;;;;-1.33;53.56;104082.69;2097590;28;20277;-67
2022/03/20 00:45:28;;;;;;;23.10;16.87;;;;;;;-1.26;53.88;104093.03;2098633;28;20191;-67
2022/03/20 00:46:28;;;;;;;22.77;16.77;;;;;;;-1.27;53.87;104098.78;2097813;28;20189;-67
2022/03/20 00:47:29;;;;;;;23.60;16.70;;;;;;;-1.23;53.66;104101.78;2097877;28;20574;-67
2022/03/20 00:48:29;;;;;;;28.90;17.33;;;;;;;-1.26;53.99;104090.31;2098570;28;20190;-67
2022/03/20 00:49:30;;;;;;;24.93;18.10;;;;;;;-1.78;54.78;104009.13;2098617;28;20208;-67
2022/03/20 00:50:31;;;;;;;27.75;16.98;;;;;;;-1.29;54.93;104097.41;2098534;28;20225;-67
2022/03/20 00:51:32;;;;;;;29.17;18.83;;;;;;;-2.14;55.12;103947.59;2098517;28;20175;-67
2022/03/20 00:52:34;;;;;;;28.33;18.40;;;;;;;-1.24;56.27;104091.97;2098385;28;20561;-67
2022/03/20 00:53:34;;;;;;;27.27;17.98;;;;;;;-1.24;55.45;104094.69;2098413;28;20184;-67
2022/03/20 00:54:35;;;;;;;28.30;18.27;;;;;;;-1.21;54.74;104094.97;2098330;28;20187;-67
2022/03/20 00:55:35;;;;;;;25.57;17.10;;;;;;;-1.23;54.55;104091.69;2098612;28;20181;-67
2022/03/20 00:56:36;;;;;;;26.37;18.03;;;;;;;-2.06;54.66;103957.97;2098524;28;20282;-67
2022/03/20 00:57:36;;;;;;;26.43;18.27;;;;;;;-1.21;55.09;104101.22;2098500;28;20176;-67
2022/03/20 00:58:37;;;;;;;29.83;18.73;;;;;;;-1.17;55.50;104098.78;2098451;28;20680;-67
2022/03/20 00:59:37;;;;;;;24.60;17.70;;;;;;;-2.80;54.84;103834.34;2098297;28;20188;-67
2022/03/20 01:00:38;;;;;;;24.90;17.07;;;;;;;-1.13;54.14;104097.13;2098406;28;20192;-67
2022/03/20 01:01:38;;;;;;;23.13;16.97;;;;;;;-1.10;53.78;104099.34;2098502;28;20240;-67
2022/03/20 01:02:40;;;;;;;22.00;16.10;;;;;;;-1.11;52.97;104103.94;2098137;28;20202;-67
2022/03/20 01:03:41;;;;;;;23.15;16.40;;;;;;;-1.13;53.02;104102.59;2098220;28;20175;-67
2022/03/20 01:04:42;;;;;;;22.33;15.93;;;;;;;-1.18;52.59;104142.59;2098207;28;20187;-67
2022/03/20 01:05:42;;;;;;;23.53;16.73;;;;;;;-1.24;52.98;104108.31;2098380;28;20252;-67
2022/03/20 01:06:43;;;;;;;23.30;16.50;;;;;;;-1.24;53.33;104105.59;2098407;28;20265;-67
2022/03/20 01:07:44;;;;;;;23.50;17.27;;;;;;;-1.29;53.07;104100.94;2098286;28;20204;-67
2022/03/20 01:08:44;;;;;;;27.10;17.27;;;;;;;-1.29;52.62;104100.94;2098515;28;20211;-67
2022/03/20 01:09:45;;;;;;;25.30;16.70;;;;;;;-1.34;52.44;104103.63;2098471;28;20225;-67
2022/03/20 01:10:45;;;;;;;25.63;17.07;;;;;;;-1.38;52.50;104104.44;2098440;28;20265;-67
2022/03/20 01:11:46;;;;;;;26.10;17.57;;;;;;;-1.42;52.87;104108.78;2098288;28;20253;-67
2022/03/20 01:12:46;;;;;;;22.70;16.50;;;;;;;-2.03;53.22;104015.31;2098263;28;20174;-67
2022/03/20 01:13:47;;;;;;;25.77;17.60;;;;;;;-1.53;53.68;104102.50;2098132;28;20185;-67
2022/03/20 01:14:47;;;;;;;26.07;17.87;;;;;;;-1.55;53.59;104095.72;2098342;28;20187;-67
2022/03/20 01:15:49;;;;;;;24.67;17.83;;;;;;;-1.55;54.00;104106.59;2098374;28;20520;-67
2022/03/20 01:16:49;;;;;;;28.50;18.27;;;;;;;-1.60;54.49;104098.41;2098474;28;20178;-67
2022/03/20 01:17:50;;;;;;;26.77;18.97;;;;;;;-1.63;55.13;104096.22;2098185;28;20177;-67
2022/03/20 01:18:50;;;;;;;27.97;19.40;;;;;;;-1.72;55.35;104095.91;2098516;28;20655;-67
2022/03/20 01:19:51;;;;;;;28.30;19.73;;;;;;;-1.74;56.08;104098.09;2098233;28;20185;-67
2022/03/20 01:20:53;;;;;;;27.17;19.37;;;;;;;-1.73;56.00;104097.78;2098205;28;20229;-67
2022/03/20 01:21:54;;;;;;;30.05;20.88;;;;;;;-1.73;56.29;104097.00;2098347;28;20162;-67
2022/03/20 01:22:55;;;;;;;27.50;19.92;;;;;;;-1.77;56.52;104095.06;2098294;28;20619;-67
2022/03/20 01:23:56;;;;;;;27.67;19.50;;;;;;;-2.42;56.73;104000.44;2098083;28;20186;-67
2022/03/20 01:24:56;;;;;;;26.67;20.27;;;;;;;-1.74;56.18;104108.97;2098396;28;20742;-67
2022/03/20 01:25:58;;;;;;;26.20;19.37;;;;;;;-1.74;56.43;104097.25;2098291;28;20177;-67
2022/03/20 01:26:59;;;;;;;26.63;19.40;;;;;;;-1.71;56.86;104092.09;2098273;28;20187;-67
2022/03/20 01:27:59;;;;;;;27.90;19.13;;;;;;;-2.67;56.37;103931.63;2098019;28;20244;-67
2022/03/20 01:29:00;;;;;;;28.20;19.27;;;;;;;-1.67;56.37;104095.09;2098355;28;20234;-67
2022/03/20 01:30:01;;;;;;;22.57;16.80;;;;;;;-1.61;56.07;104097.56;2097632;28;20187;-67
2022/03/20 01:31:02;;;;;;;28.02;18.52;;;;;;;-1.58;55.63;104100.56;2097609;28;20180;-67
2022/03/20 01:32:02;;;;;;;35.33;19.83;;;;;;;-1.54;55.18;104100.06;2098165;28;20171;-67
2022/03/20 01:33:03;;;;;;;30.83;19.00;;;;;;;-1.55;54.66;104106.59;2097463;28;20573;-67
2022/03/20 01:34:04;;;;;;;28.83;17.00;;;;;;;-2.16;54.43;103998.69;2097883;28;20168;-67
2022/03/20 01:35:07;;;;;;;26.67;18.50;;;;;;;-2.15;55.33;104012.00;2098195;28;20282;-67
2022/03/20 01:36:07;;;;;;;25.85;18.85;;;;;;;-2.14;55.50;104012.81;2098128;28;20181;-67
2022/03/20 01:37:08;;;;;;;25.17;18.30;;;;;;;-1.58;56.13;104102.50;2098215;28;20185;-67
2022/03/20 01:38:12;;;;;;;25.20;19.00;;;;;;;-1.83;56.03;104067.84;2098191;28;20174;-67
2022/03/20 01:39:15;;;;;;;25.55;18.42;;;;;;;-1.64;56.31;104100.00;2098149;28;20454;-67
2022/03/20 01:40:15;;;;;;;25.70;18.13;;;;;;;-2.05;56.22;104060.16;2098159;28;20704;-67
2022/03/20 01:41:16;;;;;;;24.47;17.60;;;;;;;-1.54;55.88;104100.06;2098257;28;20609;-67
2022/03/20 01:42:16;;;;;;;26.40;18.80;;;;;;;-1.52;55.52;104101.41;2097964;28;20732;-67
2022/03/20 01:43:17;;;;;;;24.03;17.43;;;;;;;-1.73;54.91;104071.69;2098109;28;20198;-67
2022/03/20 01:44:18;;;;;;;24.87;17.43;;;;;;;-1.64;55.40;104075.53;2097838;28;20177;-67
2022/03/20 01:45:21;;;;;;;29.53;18.87;;;;;;;-1.44;54.97;104122.66;2098264;28;20180;-67
2022/03/20 01:46:22;;;;;;;25.05;18.63;;;;;;;-1.48;55.21;104087.00;2098026;28;20219;-67
2022/03/20 01:47:22;;;;;;;24.00;17.23;;;;;;;-1.43;54.60;104102.53;2097995;28;20266;-67
2022/03/20 01:48:23;;;;;;;22.83;17.17;;;;;;;-1.49;54.79;104079.09;2097911;28;20179;-67
2022/03/20 01:49:23;;;;;;;25.67;17.50;;;;;;;-2.81;55.07;103874.28;2098166;28;20176;-67
2022/03/20 01:50:27;;;;;;;25.93;17.93;;;;;;;-1.49;54.95;104098.16;2098166;28;20215;-67
2022/03/20 01:52:49;;;;;;;28.65;18.50;;;;;;;-1.46;54.89;104100.34;2098194;28;20168;-67
2022/03/20 01:53:49;;;;;;;31.58;19.05;;;;;;;-1.45;54.63;104093.81;2097729;28;20180;-67
2022/03/20 01:54:51;;;;;;;23.93;17.20;;;;;;;-1.45;54.43;104099.25;2098180;28;20175;-67
2022/03/20 01:55:51;;;;;;;24.00;16.65;;;;;;;-2.39;54.31;103945.59;2098086;28;20204;-67
2022/03/20 01:56:52;;;;;;;27.07;17.97;;;;;;;-1.74;54.69;104054.56;2098049;28;20236;-67
2022/03/20 01:57:54;;;;;;;24.87;17.60;;;;;;;-1.49;54.79;104094.63;2097950;28;20671;-67
2022/03/20 01:58:54;;;;;;;24.60;17.73;;;;;;;-1.52;55.08;104090.53;2097929;28;20267;-67
2022/03/20 01:59:55;;;;;;;26.53;18.17;;;;;;;-1.55;55.29;104095.72;2098085;28;20567;-67
2022/03/20 02:00:55;;;;;;;25.53;17.83;;;;;;;-1.53;55.13;104088.91;2098104;28;20194;-67
2022/03/20 02:01:56;;;;;;;26.17;17.13;;;;;;;-1.53;55.08;104091.63;2097381;28;20608;-67
2022/03/20 02:02:56;;;;;;;23.57;17.30;;;;;;;-1.54;54.89;104089.97;2097266;28;20679;-67
2022/03/20 02:03:57;;;;;;;26.00;17.60;;;;;;;-1.54;55.39;104095.41;2097120;28;20630;-67
2022/03/20 02:04:57;;;;;;;23.73;17.53;;;;;;;-2.27;55.64;103981.50;2097507;28;20168;-67
2022/03/20 02:06:00;;;;;;;24.60;16.53;;;;;;;-2.37;55.67;103958.94;2097913;28;20190;-67
2022/03/20 02:07:02;;;;;;;25.65;17.48;;;;;;;-1.54;55.64;104097.34;2097354;28;20255;-67
2022/03/20 02:08:02;;;;;;;25.65;17.30;;;;;;;-1.56;56.08;104092.16;2097196;28;20171;-67
2022/03/20 02:09:04;;;;;;;27.63;17.27;;;;;;;-1.76;56.00;104069.53;2097431;28;20183;-67
2022/03/20 02:10:10;;;;;;;29.58;18.38;;;;;;;-2.63;56.12;103928.09;2097315;28;20206;-67
2022/03/20 02:11:10;;;;;;;27.48;17.33;;;;;;;-1.59;55.93;104089.94;2098046;28;20166;-67
2022/03/20 02:12:11;;;;;;;24.97;17.47;;;;;;;-1.80;55.89;104069.22;2097832;28;20179;-67
2022/03/20 02:13:12;;;;;;;30.08;17.65;;;;;;;-1.60;56.50;104085.59;2097643;28;20233;-67
2022/03/20 02:14:12;;;;;;;23.83;17.40;;;;;;;-1.57;56.56;104094.03;2097829;28;20233;-67
2022/03/20 02:15:14;;;;;;;23.50;16.93;;;;;;;-1.53;56.10;104088.09;2097920;28;20711;-67
2022/03/20 02:16:16;;;;;;;27.73;17.20;;;;;;;-1.48;55.89;104092.44;2098014;28;20168;-67
2022/03/20 02:17:16;;;;;;;26.92;17.77;;;;;;;-2.85;56.40;103859.59;2097988;28;20270;-67
2022/03/20 02:18:20;;;;;;;26.37;18.57;;;;;;;-2.13;56.26;103971.78;2097915;28;20168;-67
2022/03/20 02:19:21;;;;;;;23.10;17.08;;;;;;;-1.36;55.96;104086.78;2097980;28;20180;-67
2022/03/20 02:20:22;;;;;;;27.60;17.43;;;;;;;-2.22;55.59;103973.38;2097845;28;20182;-67
2022/03/20 02:21:36;;;;;;;26.17;18.40;;;;;;;-1.28;56.07;104096.31;2097946;28;20273;-67
2022/03/20 02:22:42;;;;;;;25.42;16.48;;;;;;;-1.27;56.19;104094.13;2097775;28;20178;-67
2022/03/20 02:23:43;;;;;;;30.45;18.38;;;;;;;-1.23;55.68;104089.78;2097705;28;20255;-67
2022/03/20 02:24:48;;;;;;;26.60;17.33;;;;;;;-1.18;56.19;104094.41;2097858;28;20180;-67
2022/03/20 02:25:50;;;;;;;23.55;16.85;;;;;;;-1.83;55.74;103988.19;2097983;28;20164;-67
2022/03/20 02:26:51;;;;;;;20.20;15.75;;;;;;;-1.52;55.37;104036.94;2097760;28;20676;-67
2022/03/20 02:27:52;;;;;;;21.00;16.27;;;;;;;-1.08;54.82;104097.16;2097822;28;20628;-67
2022/03/20 02:28:53;;;;;;;21.63;15.88;;;;;;;-1.08;54.82;104103.44;2097962;28;20176;-67
2022/03/20 02:30:02;;;;;;;21.83;15.80;;;;;;;-1.07;54.97;104105.06;2097780;28;20181;-67
2022/03/20 02:31:03;;;;;;;21.92;15.70;;;;;;;-1.09;54.78;104121.94;2097910;28;20169;-67
2022/03/20 02:32:05;;;;;;;24.67;15.77;;;;;;;-1.26;54.77;104082.16;2097911;28;20177;-67
2022/03/20 02:33:05;;;;;;;28.23;16.65;;;;;;;-1.21;55.11;104100.41;2097574;28;20180;-67
2022/03/20 02:34:07;;;;;;;27.50;16.40;;;;;;;-1.14;54.58;104097.44;2097458;28;20263;-67
2022/03/20 02:35:11;;;;;;;23.30;16.00;;;;;;;-1.17;54.45;104100.69;2097831;28;20196;-67
2022/03/20 02:36:12;;;;;;;22.33;15.43;;;;;;;-1.18;53.70;104097.13;2097743;28;20252;-67
2022/03/20 02:37:14;;;;;;;19.67;14.10;;;;;;;-2.40;53.08;103899.69;2097922;28;20649;-67
2022/03/20 02:38:15;;;;;;;23.05;16.63;;;;;;;-1.27;54.22;104098.78;2097765;28;20168;-67
2022/03/20 02:39:16;;;;;;;20.67;15.45;;;;;;;-1.33;53.00;104110.75;2097889;28;20179;-67
2022/03/20 02:40:19;;;;;;;19.77;15.13;;;;;;;-1.33;52.27;104097.94;2097851;28;20185;-67
2022/03/20 02:41:20;;;;;;;22.80;15.80;;;;;;;-2.03;51.86;104014.47;2097904;28;20182;-67
2022/03/20 02:42:23;;;;;;;21.90;15.43;;;;;;;-2.91;51.43;103859.84;2097641;28;20675;-67
2022/03/20 02:43:29;;;;;;;24.98;15.77;;;;;;;-2.15;51.78;103994.88;2097765;28;20680;-67
2022/03/20 02:45:03;;;;;;;21.75;15.60;;;;;;;-1.58;52.03;104105.22;2097086;28;20660;-67
2022/03/20 02:46:04;;;;;;;21.42;14.82;;;;;;;-1.79;52.39;104078.19;2097865;28;20168;-67
2022/03/20 02:47:05;;;;;;;22.40;15.97;;;;;;;-1.95;52.41;104079.22;2097876;28;20207;-67
2022/03/20 02:48:06;;;;;;;23.48;17.02;;;;;;;-1.90;52.88;104099.06;2097854;28;20164;-67
2022/03/20 02:49:07;;;;;;;22.63;16.13;;;;;;;-1.86;53.24;104116.50;2097825;28;20178;-67
2022/03/20 02:50:11;;;;;;;23.03;16.27;;;;;;;-2.33;53.67;104052.38;2097740;28;20174;-67
2022/03/20 02:51:12;;;;;;;23.60;15.70;;;;;;;-2.02;53.71;104101.19;2097039;28;20176;-67
2022/03/20 02:52:12;;;;;;;23.83;16.23;;;;;;;-1.94;53.38;104114.31;2097234;28;20172;-67
2022/03/20 02:53:13;;;;;;;21.90;15.97;;;;;;;-1.94;53.54;104114.31;2097795;28;20164;-67
2022/03/20 02:54:14;;;;;;;25.30;16.00;;;;;;;-1.97;54.13;104114.81;2097652;28;20566;-67
2022/03/20 02:55:18;;;;;;;26.03;16.20;;;;;;;-2.96;54.19;103969.19;2097134;28;20199;-67
2022/03/20 02:56:18;;;;;;;27.70;16.50;;;;;;;-2.01;53.96;104110.97;2097149;28;20625;-67
2022/03/20 02:57:19;;;;;;;23.47;15.80;;;;;;;-2.01;54.77;104115.63;2097840;28;20183;-67
2022/03/20 02:58:20;;;;;;;23.93;15.87;;;;;;;-1.99;54.30;104108.84;2097809;28;20172;-67
2022/03/20 02:59:20;;;;;;;24.13;15.90;;;;;;;-2.01;53.88;104121.06;2097755;28;20203;-67
2022/03/20 03:00:24;;;;;;;29.90;16.40;;;;;;;-2.05;54.57;104112.59;2097762;28;20203;-67
2022/03/20 03:01:25;;;;;;;23.42;15.90;;;;;;;-2.08;54.71;104107.69;2097847;28;20172;-67
2022/03/20 03:02:30;;;;;;;21.77;16.50;;;;;;;-2.93;54.63;103987.63;2097555;28;20175;-67
2022/03/20 03:03:31;;;;;;;24.30;16.17;;;;;;;-2.09;55.21;104110.66;2097716;28;20179;-67
2022/03/20 03:04:31;;;;;;;20.10;15.83;;;;;;;-2.14;55.88;104105.22;2097585;28;20691;-67
2022/03/20 03:05:32;;;;;;;26.33;16.30;;;;;;;-2.15;56.07;104112.56;2097783;28;20506;-67
2022/03/20 03:06:33;;;;;;;21.90;16.85;;;;;;;-2.14;56.39;104105.22;2097579;28;20214;-67
2022/03/20 03:10:55;;;;;;;24.10;15.93;;;;;;;-2.13;56.79;104104.94;2097700;28;20180;-67
2022/03/20 03:11:34;;;;;;;28.58;15.90;;;;;;;-2.08;56.11;104115.84;2097847;28;20160;-67
2022/03/20 03:12:35;;;;;;;23.93;16.67;;;;;;;-2.06;56.04;104113.69;2097521;28;20203;-67
2022/03/20 03:13:38;;;;;;;26.27;16.57;;;;;;;-2.05;55.77;104115.31;2097723;28;20176;-67
2022/03/20 03:16:00;;;;;;;26.65;16.67;;;;;;;-2.08;56.09;104149.25;2097822;28;20595;-67
2022/03/20 03:17:01;;;;;;;27.88;16.80;;;;;;;-2.05;55.79;104112.59;2097744;28;20175;-67
2022/03/20 03:18:01;;;;;;;20.93;15.77;;;;;;;-2.08;55.05;104113.13;2097547;28;20183;-67
2022/03/20 03:19:02;;;;;;;22.67;16.00;;;;;;;-2.30;54.94;104081.75;2097676;28;20275;-67
2022/03/20 03:20:03;;;;;;;24.00;15.93;;;;;;;-2.05;54.79;104122.66;2097602;28;20160;-67
2022/03/20 03:21:04;;;;;;;22.03;15.37;;;;;;;-2.05;55.09;104114.50;2097527;28;20215;-67
2022/03/20 03:22:04;;;;;;;22.27;16.47;;;;;;;-2.07;55.72;104117.47;2097657;28;20176;-67
2022/03/20 03:23:05;;;;;;;23.00;16.37;;;;;;;-2.06;56.19;104149.00;2097551;28;20176;-67
2022/03/20 03:24:06;;;;;;;24.77;16.50;;;;;;;-2.03;55.73;104113.97;2097573;28;20247;-67
2022/03/20 03:25:06;;;;;;;22.83;16.00;;;;;;;-2.03;55.04;104123.19;2097795;28;20646;-67
2022/03/20 03:26:07;;;;;;;22.13;16.30;;;;;;;-2.03;55.05;104113.16;2097767;28;20172;-67
2022/03/20 03:27:08;;;;;;;23.33;16.67;;;;;;;-2.04;55.06;104114.25;2097688;28;20263;-67
2022/03/20 03:28:10;;;;;;;26.07;16.97;;;;;;;-2.01;55.35;104119.13;2097579;28;20191;-67
2022/03/20 03:29:11;;;;;;;23.65;15.90;;;;;;;-2.01;55.54;104129.22;2097738;28;20557;-67
2022/03/20 03:30:15;;;;;;;22.93;15.87;;;;;;;-2.05;55.09;104118.03;2097621;28;20207;-67
2022/03/20 03:31:16;;;;;;;21.48;15.85;;;;;;;-2.09;55.52;104114.22;2097667;28;20175;-67
2022/03/20 03:32:17;;;;;;;24.83;16.50;;;;;;;-2.08;55.50;104116.66;2097548;28;20172;-67
2022/03/20 03:33:21;;;;;;;24.35;16.60;;;;;;;-2.11;55.92;104123.72;2097613;28;20676;-67
2022/03/20 03:35:42;;;;;;;22.63;15.95;;;;;;;-2.13;55.17;104128.56;2097642;28;20184;-67
2022/03/20 03:36:42;;;;;;;24.90;17.02;;;;;;;-2.14;55.08;104127.78;2097692;28;20179;-67
2022/03/20 03:37:43;;;;;;;22.30;16.23;;;;;;;-2.16;55.53;104140.00;2097511;28;20646;-67
2022/03/20 03:38:43;;;;;;;26.30;16.77;;;;;;;-2.26;54.89;104118.19;2097715;28;20176;-67
2022/03/20 03:39:44;;;;;;;23.33;16.63;;;;;;;-2.33;55.72;104101.28;2097611;28;20180;-67
2022/03/20 03:40:47;;;;;;;21.30;15.40;;;;;;;-2.28;55.34;104114.88;2097733;28;20175;-67
2022/03/20 03:41:47;;;;;;;22.05;16.10;;;;;;;-2.32;54.86;104102.94;2097619;28;20175;-67
2022/03/20 03:42:48;;;;;;;24.90;16.63;;;;;;;-2.29;55.32;104121.41;2097498;28;20180;-67
2022/03/20 03:43:48;;;;;;;21.93;16.00;;;;;;;-2.67;56.72;104067.38;2097176;28;20172;-67
2022/03/20 03:44:50;;;;;;;21.37;16.10;;;;;;;-2.30;56.16;104130.66;2097756;28;20184;-67
2022/03/20 03:45:53;;;;;;;23.95;15.75;;;;;;;-2.32;56.25;104133.63;2096880;28;20188;-67
2022/03/20 03:46:57;;;;;;;24.85;16.75;;;;;;;-2.38;56.12;104136.56;2097087;28;20211;-67
2022/03/20 03:47:58;;;;;;;21.70;16.75;;;;;;;-2.39;55.62;104135.75;2097640;28;20180;-67
2022/03/20 03:48:58;;;;;;;26.07;16.37;;;;;;;-2.41;55.87;104131.66;2097675;28;20184;-67
2022/03/20 03:49:59;;;;;;;29.67;18.67;;;;;;;-2.48;55.93;104133.75;2097381;28;20187;-67
2022/03/20 03:51:00;;;;;;;32.20;18.90;;;;;;;-2.47;56.35;104132.72;2097655;28;20343;-67
2022/03/20 03:52:01;;;;;;;29.23;19.07;;;;;;;-3.37;56.38;103988.09;2097395;28;20714;-67
2022/03/20 03:53:03;;;;;;;29.30;19.73;;;;;;;-2.53;56.08;104134.56;2097535;28;20626;-67
2022/03/20 03:54:03;;;;;;;28.27;18.83;;;;;;;-3.09;57.04;104059.16;2097219;28;20615;-67
2022/03/20 03:55:05;;;;;;;28.70;18.97;;;;;;;-2.62;56.98;104138.81;2097574;28;20196;-67
2022/03/20 03:56:06;;;;;;;27.65;18.98;;;;;;;-2.58;56.43;104131.78;2097659;28;20255;-67
2022/03/20 03:57:06;;;;;;;29.00;19.73;;;;;;;-2.79;57.06;104102.84;2098990;28;20658;-67
2022/03/20 03:58:07;;;;;;;29.27;18.33;;;;;;;-2.60;57.53;104133.13;2099022;28;20634;-67
2022/03/20 03:59:08;;;;;;;27.03;17.83;;;;;;;-2.57;57.93;104138.06;2098442;28;20175;-67
2022/03/20 04:00:09;;;;;;;27.30;17.60;;;;;;;-3.40;56.74;104027.41;2098420;28;20179;-67
2022/03/20 04:01:09;;;;;;;23.77;16.83;;;;;;;-2.57;56.82;104140.78;2098983;28;20171;-67
2022/03/20 04:02:10;;;;;;;26.53;17.47;;;;;;;-3.04;56.84;104080.91;2098827;28;20176;-67
2022/03/20 04:03:11;;;;;;;22.90;16.13;;;;;;;-2.66;57.19;104137.72;2098864;28;20179;-67
2022/03/20 04:04:11;;;;;;;23.63;15.23;;;;;;;-2.64;57.26;104145.59;2098729;28;20176;-66
2022/03/20 04:05:14;;;;;;;27.03;16.90;;;;;;;-2.68;57.01;104142.56;2098248;28;20598;-67
2022/03/20 04:06:15;;;;;;;26.73;16.92;;;;;;;-2.93;56.73;104103.53;2098431;28;20175;-67
2022/03/20 04:07:21;;;;;;;29.07;17.63;;;;;;;-3.76;57.44;103979.31;2098934;28;20637;-67
2022/03/20 04:08:21;;;;;;;26.40;16.58;;;;;;;-2.74;57.88;104134.63;2099038;28;20644;-67
2022/03/20 04:09:22;;;;;;;25.13;16.03;;;;;;;-2.76;57.74;104142.22;2098889;28;20176;-67
2022/03/20 04:10:23;;;;;;;24.57;16.27;;;;;;;-2.76;57.02;104136.81;2098932;28;20179;-67
2022/03/20 04:11:24;;;;;;;23.20;16.50;;;;;;;-2.88;56.77;104112.53;2099027;28;20187;-67
2022/03/20 04:12:24;;;;;;;25.53;17.17;;;;;;;-2.73;57.49;104133.59;2098766;28;20303;-67
2022/03/20 04:13:25;;;;;;;23.87;16.80;;;;;;;-2.74;57.80;104134.63;2099007;28;20180;-67
2022/03/20 04:14:25;;;;;;;22.87;16.20;;;;;;;-3.60;57.11;103991.94;2098879;28;20183;-67
2022/03/20 04:15:26;;;;;;;24.03;16.33;;;;;;;-2.71;57.46;104137.69;2099018;28;20175;-67
2022/03/20 04:16:26;;;;;;;21.57;15.70;;;;;;;-2.70;57.78;104136.59;2098920;28;20172;-67
2022/03/20 04:17:28;;;;;;;22.03;15.27;;;;;;;-2.78;57.44;104123.47;2098938;28;20241;-67
2022/03/20 04:18:28;;;;;;;20.10;14.95;;;;;;;-2.63;56.42;104131.75;2098859;28;20176;-67
2022/03/20 04:19:29;;;;;;;22.23;15.50;;;;;;;-2.62;56.94;104135.31;2098861;28;20180;-67
2022/03/20 04:20:29;;;;;;;20.83;14.77;;;;;;;-2.62;56.79;104138.81;2098640;28;20191;-67
2022/03/20 04:21:30;;;;;;;21.63;15.50;;;;;;;-2.60;56.41;104138.56;2099019;28;20240;-67
2022/03/20 04:22:31;;;;;;;19.37;14.77;;;;;;;-2.61;56.13;104137.75;2098573;28;20191;-67
2022/03/20 04:25:01;;;;;;;24.70;17.88;;;;;;;-2.58;55.83;104142.66;2093761;28;20218;-67
2022/03/20 04:26:02;;;;;;;28.03;17.37;;;;;;;-2.56;56.05;104140.53;2098823;28;20229;-67
2022/03/20 04:27:05;;;;;;;21.75;16.55;;;;;;;-2.54;55.61;104142.94;2098895;28;20180;-67
2022/03/20 04:28:05;;;;;;;21.15;15.63;;;;;;;-3.47;55.94;104010.53;2098713;28;20664;-67
2022/03/20 04:29:06;;;;;;;23.27;16.43;;;;;;;-3.52;56.20;103991.50;2098862;28;20602;-67
2022/03/20 04:30:07;;;;;;;27.07;17.00;;;;;;;-2.58;56.13;104139.16;2098932;28;20176;-67
2022/03/20 04:31:07;;;;;;;29.65;16.67;;;;;;;-2.58;55.54;104148.09;2098791;28;20172;-67
2022/03/20 04:32:08;;;;;;;23.37;16.37;;;;;;;-2.63;55.51;104145.34;2098775;28;20696;-67
2022/03/20 04:33:09;;;;;;;26.93;16.10;;;;;;;-2.99;55.83;104099.94;2098696;28;20265;-67
2022/03/20 04:34:10;;;;;;;21.17;15.30;;;;;;;-2.62;56.27;104148.88;2098565;28;20202;-67
2022/03/20 04:35:11;;;;;;;26.58;16.33;;;;;;;-2.61;55.86;104151.34;2098736;28;20175;-67
2022/03/20 04:36:11;;;;;;;22.48;15.70;;;;;;;-4.30;55.76;103880.16;2098701;28;20193;-67
2022/03/20 04:37:13;;;;;;;22.03;15.83;;;;;;;-2.77;55.72;104143.31;2098816;28;20183;-67
2022/03/20 04:38:13;;;;;;;22.25;15.93;;;;;;;-2.67;55.74;104152.34;2098727;28;20176;-67
2022/03/20 04:39:14;;;;;;;26.67;16.03;;;;;;;-2.71;55.62;104145.81;2098758;28;20187;-67
2022/03/20 04:40:14;;;;;;;23.57;16.90;;;;;;;-2.75;55.75;104158.28;2098608;28;20190;-67
2022/03/20 04:41:17;;;;;;;25.83;16.43;;;;;;;-2.74;56.10;104149.03;2098660;28;20175;-67
2022/03/20 04:42:17;;;;;;;22.50;16.40;;;;;;;-2.76;56.16;104155.81;2098575;28;20662;-67
2022/03/20 04:43:18;;;;;;;24.47;16.70;;;;;;;-2.77;56.54;104151.47;2098589;28;20546;-67
2022/03/20 04:44:19;;;;;;;26.17;17.10;;;;;;;-2.75;56.64;104162.88;2098482;28;20187;-67
2022/03/20 04:45:19;;;;;;;26.60;16.90;;;;;;;-2.73;56.47;104147.16;2098687;28;20199;-67
2022/03/20 04:46:20;;;;;;;24.50;17.07;;;;;;;-3.94;56.29;103954.47;2098552;28;20250;-67
2022/03/20 04:59:11;;;;;;;22.67;15.95;;;;;;;-2.72;55.69;104170.50;2098697;28;20164;-67